createdAt,value
2022-10-18T00:01:48.718Z,17.50
2022-10-18T00:04:36.953Z,17.50
2022-10-18T00:07:24.767Z,17.50
2022-10-18T00:10:12.734Z,17.50
2022-10-18T00:13:00.642Z,17.50
2022-10-18T00:15:53.958Z,17.40
2022-10-18T00:18:42.158Z,17.50
2022-10-18T00:21:30.025Z,17.40
2022-10-18T00:24:17.885Z,17.40
2022-10-18T00:27:05.725Z,17.50
2022-10-18T00:29:53.726Z,17.50
2022-10-18T00:32:43.491Z,17.50
2022-10-18T00:35:31.370Z,17.50
2022-10-18T00:38:19.317Z,17.50
2022-10-18T00:41:08.392Z,17.50
2022-10-18T00:43:57.563Z,17.50
2022-10-18T00:46:46.466Z,17.60
2022-10-18T00:49:37.591Z,17.60
2022-10-18T00:52:29.467Z,17.70
2022-10-18T00:55:18.522Z,17.50
2022-10-18T00:58:06.963Z,17.50
2022-10-18T01:00:54.894Z,17.40
2022-10-18T01:03:42.868Z,17.40
2022-10-18T01:06:32.608Z,17.40
2022-10-18T01:09:25.405Z,17.40
2022-10-18T01:12:19.190Z,17.30
2022-10-18T01:15:10.843Z,17.30
2022-10-18T01:18:02.774Z,17.30
2022-10-18T01:20:59.286Z,17.30
2022-10-18T01:24:08.126Z,17.30
2022-10-18T01:27:05.891Z,17.20
2022-10-18T01:29:59.471Z,17.30
2022-10-18T01:32:49.886Z,17.30
2022-10-18T01:35:40.739Z,17.30
2022-10-18T01:38:30.034Z,17.20
2022-10-18T01:41:19.946Z,17.20
2022-10-18T01:44:09.550Z,17.10
2022-10-18T01:46:58.234Z,17.10
2022-10-18T01:49:47.807Z,17.10
2022-10-18T01:52:35.673Z,17.00
2022-10-18T01:55:26.332Z,17.10
2022-10-18T01:58:20.100Z,17.20
2022-10-18T02:04:04.952Z,17.10
2022-10-18T02:06:58.291Z,17.10
2022-10-18T02:09:50.377Z,17.00
2022-10-18T02:12:41.420Z,17.10
2022-10-18T02:15:31.113Z,17.20
2022-10-18T02:18:21.925Z,17.20
2022-10-18T02:21:11.872Z,17.20
2022-10-18T02:24:03.164Z,17.20
2022-10-18T02:26:51.038Z,17.20
2022-10-18T02:29:39.449Z,17.20
2022-10-18T02:32:32.373Z,17.10
2022-10-18T02:35:23.143Z,17.10
2022-10-18T02:38:13.145Z,17.10
2022-10-18T02:41:02.686Z,17.10
2022-10-18T02:43:50.577Z,17.10
2022-10-18T02:46:38.538Z,17.00
2022-10-18T02:49:26.525Z,16.90
2022-10-18T02:52:14.454Z,16.80
2022-10-18T02:55:02.349Z,16.90
2022-10-18T02:57:51.569Z,16.90
2022-10-18T03:00:39.461Z,16.90
2022-10-18T03:03:27.380Z,16.90
2022-10-18T03:06:15.308Z,16.80
2022-10-18T03:09:03.441Z,16.80
2022-10-18T03:11:51.276Z,16.80
2022-10-18T03:14:40.565Z,16.80
2022-10-18T03:17:28.556Z,16.90
2022-10-18T03:20:16.541Z,16.80
2022-10-18T03:23:04.412Z,16.90
2022-10-18T03:25:52.282Z,16.90
2022-10-18T03:28:40.275Z,16.80
2022-10-18T03:34:18.626Z,16.80
2022-10-18T03:37:06.494Z,16.70
2022-10-18T03:39:54.344Z,16.70
2022-10-18T03:42:42.167Z,16.70
2022-10-18T03:45:31.432Z,16.60
2022-10-18T03:48:20.973Z,16.60
2022-10-18T03:51:08.836Z,16.50
2022-10-18T03:53:57.130Z,16.50
2022-10-18T03:56:45.349Z,16.40
2022-10-18T03:59:33.295Z,16.40
2022-10-18T04:02:21.136Z,16.40
2022-10-18T04:05:10.818Z,16.30
2022-10-18T04:07:58.896Z,16.30
2022-10-18T04:10:47.174Z,16.30
2022-10-18T04:13:35.295Z,16.40
2022-10-18T04:16:23.343Z,16.40
2022-10-18T04:19:11.533Z,16.30
2022-10-18T04:22:00.747Z,16.30
2022-10-18T04:24:48.624Z,16.30
2022-10-18T04:27:36.900Z,16.30
2022-10-18T04:30:24.913Z,16.30
2022-10-18T04:33:13.404Z,16.50
2022-10-18T04:36:01.401Z,16.40
2022-10-18T04:38:50.817Z,16.30
2022-10-18T04:41:38.820Z,16.30
2022-10-18T04:44:27.167Z,16.20
2022-10-18T04:47:15.507Z,16.20
2022-10-18T04:50:03.424Z,16.10
2022-10-18T04:52:51.237Z,16.10
2022-10-18T04:55:40.536Z,16.10
2022-10-18T04:58:28.601Z,16.00
2022-10-18T05:01:17.238Z,16.00
2022-10-18T05:04:05.258Z,16.00
2022-10-18T05:06:53.087Z,16.00
2022-10-18T05:09:41.011Z,15.90
2022-10-18T05:12:30.583Z,15.90
2022-10-18T05:15:18.782Z,15.90
2022-10-18T05:18:06.734Z,15.90
2022-10-18T05:20:54.706Z,15.80
2022-10-18T05:23:42.568Z,15.80
2022-10-18T05:26:30.419Z,15.90
2022-10-18T05:29:19.828Z,15.80
2022-10-18T05:32:08.080Z,15.80
2022-10-18T05:34:55.967Z,15.80
2022-10-18T05:37:44.441Z,15.70
2022-10-18T05:40:32.415Z,15.70
2022-10-18T05:43:20.455Z,15.70
2022-10-18T05:46:14.514Z,15.70
2022-10-18T05:49:03.163Z,15.70
2022-10-18T05:51:51.063Z,15.70
2022-10-18T05:54:38.948Z,15.60
2022-10-18T05:57:26.830Z,15.70
2022-10-18T06:00:15.224Z,15.60
2022-10-18T06:03:04.666Z,15.70
2022-10-18T06:05:52.740Z,15.60
2022-10-18T06:08:41.122Z,15.60
2022-10-18T06:11:29.040Z,15.70
2022-10-18T06:14:16.982Z,15.60
2022-10-18T06:17:04.863Z,15.60
2022-10-18T06:19:54.109Z,15.60
2022-10-18T06:22:41.947Z,15.60
2022-10-18T06:25:29.880Z,15.50
2022-10-18T06:28:17.729Z,15.50
2022-10-18T06:31:06.797Z,15.50
2022-10-18T06:33:56.704Z,15.50
2022-10-18T06:36:45.879Z,15.50
2022-10-18T06:39:33.763Z,15.50
2022-10-18T06:42:22.685Z,15.50
2022-10-18T06:45:11.154Z,15.50
2022-10-18T06:47:59.066Z,15.50
2022-10-18T06:50:51.762Z,15.50
2022-10-18T06:53:44.509Z,15.50
2022-10-18T06:56:41.233Z,15.50
2022-10-18T06:59:31.241Z,15.50
2022-10-18T07:02:19.456Z,15.50
2022-10-18T07:05:07.609Z,15.40
2022-10-18T07:07:56.481Z,15.40
2022-10-18T07:10:51.615Z,15.40
2022-10-18T07:13:39.617Z,15.40
2022-10-18T07:16:27.446Z,15.40
2022-10-18T07:19:16.338Z,15.40
2022-10-18T07:22:04.215Z,15.40
2022-10-18T07:24:52.119Z,15.40
2022-10-18T07:27:41.917Z,15.40
2022-10-18T07:30:30.036Z,15.40
2022-10-18T07:33:18.199Z,15.40
2022-10-18T07:36:06.944Z,15.40
2022-10-18T07:38:55.025Z,15.50
2022-10-18T07:41:43.050Z,15.50
2022-10-18T07:44:32.335Z,15.50
2022-10-18T07:47:20.203Z,15.50
2022-10-18T07:50:08.630Z,15.50
2022-10-18T07:52:56.483Z,15.60
2022-10-18T07:55:44.756Z,15.60
2022-10-18T07:58:32.658Z,15.60
2022-10-18T08:01:22.340Z,15.60
2022-10-18T08:04:14.070Z,15.70
2022-10-18T08:07:04.409Z,15.70
2022-10-18T08:09:52.358Z,15.70
2022-10-18T08:12:40.206Z,15.70
2022-10-18T08:15:28.093Z,15.70
2022-10-18T08:18:17.296Z,15.70
2022-10-18T08:21:06.264Z,15.70
2022-10-18T08:23:55.100Z,15.70
2022-10-18T08:26:43.033Z,15.60
2022-10-18T08:29:32.053Z,15.70
2022-10-18T08:32:20.070Z,15.70
2022-10-18T08:35:10.046Z,15.70
2022-10-18T08:37:58.010Z,15.70
2022-10-18T08:40:46.047Z,15.80
2022-10-18T08:43:39.684Z,15.80
2022-10-18T08:46:28.494Z,15.80
2022-10-18T08:49:20.572Z,15.90
2022-10-18T08:52:15.301Z,15.90
2022-10-18T08:55:04.423Z,15.90
2022-10-18T08:57:52.289Z,15.90
2022-10-18T09:00:43.421Z,16.00
2022-10-18T09:03:39.530Z,16.00
2022-10-18T09:06:31.914Z,16.00
2022-10-18T09:09:26.335Z,16.00
2022-10-18T09:12:21.606Z,16.20
2022-10-18T09:15:13.892Z,16.30
2022-10-18T09:18:09.971Z,16.30
2022-10-18T09:20:58.644Z,16.40
2022-10-18T09:23:48.046Z,16.50
2022-10-18T09:26:40.220Z,16.50
2022-10-18T09:29:37.874Z,16.50
2022-10-18T09:32:29.136Z,16.60
2022-10-18T09:35:19.339Z,16.70
2022-10-18T09:38:11.493Z,16.60
2022-10-18T09:41:01.650Z,16.70
2022-10-18T09:43:53.282Z,16.60
2022-10-18T09:46:43.532Z,16.60
2022-10-18T09:49:32.916Z,16.60
2022-10-18T09:52:22.873Z,16.70
2022-10-18T09:55:15.609Z,16.70
2022-10-18T09:58:04.305Z,16.70
2022-10-18T10:00:53.967Z,16.80
2022-10-18T10:03:42.467Z,16.80
2022-10-18T10:06:31.009Z,16.90
2022-10-18T10:09:19.591Z,17.00
2022-10-18T10:12:24.655Z,17.10
2022-10-18T10:15:20.736Z,17.20
2022-10-18T10:18:20.575Z,17.30
2022-10-18T10:21:14.075Z,17.40
2022-10-18T10:24:01.997Z,17.50
2022-10-18T10:26:50.006Z,17.60
2022-10-18T10:30:01.426Z,17.70
2022-10-18T10:32:51.693Z,17.80
2022-10-18T10:35:53.020Z,17.90
2022-10-18T10:38:41.665Z,18.00
2022-10-18T10:41:29.661Z,17.80
2022-10-18T10:44:18.410Z,17.80
2022-10-18T10:47:06.863Z,17.90
2022-10-18T10:49:57.332Z,17.90
2022-10-18T10:52:48.210Z,18.00
2022-10-18T10:55:38.120Z,18.00
2022-10-18T10:58:26.959Z,18.00
2022-10-18T11:01:19.660Z,18.00
2022-10-18T11:04:22.452Z,18.00
2022-10-18T11:07:13.287Z,18.10
2022-10-18T11:10:04.865Z,18.10
2022-10-18T11:12:56.125Z,18.10
2022-10-18T11:15:46.590Z,18.20
2022-10-18T11:18:35.189Z,18.20
2022-10-18T11:21:24.666Z,18.30
2022-10-18T11:24:18.309Z,18.30
2022-10-18T11:27:11.862Z,18.30
2022-10-18T11:30:06.008Z,18.40
2022-10-18T11:32:57.548Z,18.50
2022-10-18T11:35:47.129Z,18.50
2022-10-18T11:38:37.399Z,18.50
2022-10-18T11:41:31.110Z,18.50
2022-10-18T11:44:23.720Z,18.50
2022-10-18T11:47:15.792Z,18.50
2022-10-18T11:50:09.044Z,18.50
2022-10-18T11:53:02.080Z,18.60
2022-10-18T11:55:57.813Z,18.70
2022-10-18T11:58:52.151Z,18.90
2022-10-18T12:01:43.782Z,19.00
2022-10-18T12:04:34.741Z,19.10
2022-10-18T12:07:27.824Z,19.20
2022-10-18T12:10:26.247Z,19.20
2022-10-18T12:13:29.031Z,19.10
2022-10-18T12:16:28.747Z,19.20
2022-10-18T12:19:26.474Z,19.10
2022-10-18T12:22:18.099Z,19.10
2022-10-18T12:25:07.710Z,19.00
2022-10-18T12:27:57.436Z,18.90
2022-10-18T12:30:52.033Z,19.00
2022-10-18T12:33:43.282Z,19.00
2022-10-18T12:36:56.416Z,19.00
2022-10-18T12:40:05.515Z,19.10
2022-10-18T12:42:54.440Z,19.10
2022-10-18T12:45:49.185Z,19.00
2022-10-18T12:48:38.746Z,19.10
2022-10-18T12:51:26.667Z,19.10
2022-10-18T12:54:19.690Z,19.00
2022-10-18T12:57:18.808Z,19.10
2022-10-18T13:00:07.308Z,19.10
2022-10-18T13:03:31.018Z,19.10
2022-10-18T13:06:18.896Z,19.10
2022-10-18T13:09:19.400Z,19.00
2022-10-18T13:12:22.154Z,18.90
2022-10-18T13:15:26.364Z,18.90
2022-10-18T13:18:20.447Z,18.90
2022-10-18T13:21:11.664Z,18.90
2022-10-18T13:24:12.590Z,19.00
2022-10-18T13:27:24.435Z,19.00
2022-10-18T13:30:21.998Z,18.90
2022-10-18T13:33:22.214Z,18.90
2022-10-18T13:36:23.069Z,18.90
2022-10-18T13:39:20.003Z,19.00
2022-10-18T13:42:30.284Z,19.10
2022-10-18T13:45:37.151Z,19.20
2022-10-18T13:48:43.655Z,19.00
2022-10-18T13:51:52.596Z,19.00
2022-10-18T13:54:48.048Z,19.10
2022-10-18T13:57:43.233Z,19.20
2022-10-18T14:00:49.129Z,19.30
2022-10-18T14:03:57.743Z,19.40
2022-10-18T14:06:47.728Z,19.50
2022-10-18T14:09:44.509Z,19.50
2022-10-18T14:12:36.445Z,19.60
2022-10-18T14:15:27.317Z,19.50
2022-10-18T14:18:16.613Z,19.50
2022-10-18T14:21:13.698Z,19.50
2022-10-18T14:24:03.799Z,19.40
2022-10-18T14:27:06.917Z,19.30
2022-10-18T14:30:08.817Z,19.20
2022-10-18T14:32:59.550Z,19.10
2022-10-18T14:35:59.110Z,18.90
2022-10-18T14:38:48.776Z,18.80
2022-10-18T14:41:38.377Z,18.70
2022-10-18T14:44:27.221Z,18.60
2022-10-18T14:47:16.075Z,18.60
2022-10-18T14:50:20.982Z,18.60
2022-10-18T14:53:10.065Z,18.70
2022-10-18T14:56:00.750Z,18.80
2022-10-18T14:58:48.735Z,18.80
2022-10-18T15:01:39.200Z,18.90
2022-10-18T15:04:32.696Z,18.70
2022-10-18T15:07:22.046Z,18.70
2022-10-18T15:10:15.529Z,18.60
2022-10-18T15:13:09.720Z,18.50
2022-10-18T15:15:58.244Z,18.60
2022-10-18T15:18:59.609Z,18.60
2022-10-18T15:21:53.554Z,18.50
2022-10-18T15:25:04.863Z,18.30
2022-10-18T15:27:53.761Z,18.20
2022-10-18T15:30:42.990Z,18.10
2022-10-18T15:33:34.564Z,18.00
2022-10-18T15:36:27.261Z,18.00
2022-10-18T15:39:17.084Z,18.00
2022-10-18T15:42:40.169Z,18.00
2022-10-18T15:45:36.709Z,18.00
2022-10-18T15:48:28.067Z,18.00
2022-10-18T15:51:33.744Z,18.00
2022-10-18T15:54:35.419Z,17.90
2022-10-18T15:57:31.536Z,17.80
2022-10-18T16:00:39.514Z,17.70
2022-10-18T16:03:29.810Z,17.60
2022-10-18T16:06:18.600Z,17.50
2022-10-18T16:09:06.721Z,17.40
2022-10-18T16:11:57.308Z,17.30
2022-10-18T16:14:46.738Z,17.10
2022-10-18T16:17:34.819Z,17.00
2022-10-18T16:20:24.267Z,16.90
2022-10-18T16:23:16.706Z,16.70
2022-10-18T16:26:04.629Z,16.70
2022-10-18T16:28:52.991Z,16.60
2022-10-18T16:31:42.986Z,16.60
2022-10-18T16:34:32.318Z,16.50
2022-10-18T16:37:20.258Z,16.40
2022-10-18T16:40:21.302Z,16.30
2022-10-18T16:43:09.227Z,16.30
2022-10-18T16:45:57.097Z,16.20
2022-10-18T16:48:46.705Z,16.10
2022-10-18T16:51:39.709Z,16.10
2022-10-18T16:54:28.092Z,15.90
2022-10-18T16:57:16.281Z,15.90
2022-10-18T17:00:04.954Z,15.90
2022-10-18T17:02:53.067Z,15.80
2022-10-18T17:05:42.706Z,15.80
2022-10-18T17:08:30.812Z,15.70
2022-10-18T17:11:19.295Z,15.60
2022-10-18T17:14:07.177Z,15.50
2022-10-18T17:16:56.100Z,15.40
2022-10-18T17:19:45.213Z,15.40
2022-10-18T17:22:34.435Z,15.40
2022-10-18T17:25:22.378Z,15.40
2022-10-18T17:28:13.487Z,15.30
2022-10-18T17:31:03.024Z,15.20
2022-10-18T17:33:50.981Z,15.10
2022-10-18T17:36:39.035Z,15.10
2022-10-18T17:39:28.291Z,15.00
2022-10-18T17:42:16.188Z,15.00
2022-10-18T17:45:04.107Z,14.90
2022-10-18T17:47:52.014Z,14.90
2022-10-18T17:50:40.939Z,14.90
2022-10-18T17:53:30.826Z,14.80
2022-10-18T17:56:20.091Z,14.70
2022-10-18T17:59:08.226Z,14.60
2022-10-18T18:01:56.117Z,14.60
2022-10-18T18:04:44.068Z,14.60
2022-10-18T18:07:31.896Z,14.50
2022-10-18T18:10:19.828Z,14.40
2022-10-18T18:13:08.998Z,14.40
2022-10-18T18:15:57.264Z,14.40
2022-10-18T18:18:45.236Z,14.30
2022-10-18T18:21:33.825Z,14.30
2022-10-18T18:24:24.870Z,14.30
2022-10-18T18:27:12.735Z,14.20
2022-10-18T18:30:02.112Z,14.30
2022-10-18T18:32:49.982Z,14.20
2022-10-18T18:35:37.930Z,14.10
2022-10-18T18:38:26.143Z,14.10
2022-10-18T18:41:15.734Z,14.10
2022-10-18T18:44:05.068Z,14.00
2022-10-18T18:46:54.442Z,14.00
2022-10-18T18:49:42.662Z,13.90
2022-10-18T18:52:30.850Z,13.90
2022-10-18T18:55:19.297Z,13.80
2022-10-18T18:58:07.195Z,13.80
2022-10-18T19:00:55.070Z,13.80
2022-10-18T19:03:44.996Z,13.80
2022-10-18T19:06:33.873Z,13.80
2022-10-18T19:09:22.551Z,13.80
2022-10-18T19:12:10.413Z,13.70
2022-10-18T19:14:58.413Z,13.70
2022-10-18T19:17:46.870Z,13.60
2022-10-18T19:20:36.194Z,13.50
2022-10-18T19:26:23.155Z,13.50
2022-10-18T19:29:13.192Z,13.40
2022-10-18T19:32:02.150Z,13.40
2022-10-18T19:34:50.243Z,13.40
2022-10-18T19:37:40.709Z,13.40
2022-10-18T19:40:28.849Z,13.30
2022-10-18T19:43:16.997Z,13.30
2022-10-18T19:46:05.111Z,13.30
2022-10-18T19:48:54.186Z,13.30
2022-10-18T19:51:42.637Z,13.30
2022-10-18T19:54:32.239Z,13.20
2022-10-18T19:57:20.158Z,13.20
2022-10-18T20:00:09.887Z,13.10
2022-10-18T20:02:58.857Z,13.10
2022-10-18T20:05:46.737Z,13.00
2022-10-18T20:08:35.565Z,12.90
2022-10-18T20:11:26.318Z,13.00
2022-10-18T20:14:14.253Z,12.80
2022-10-18T20:17:02.109Z,12.80
2022-10-18T20:19:49.990Z,12.80
2022-10-18T20:22:37.899Z,12.70
2022-10-18T20:25:25.856Z,12.70
2022-10-18T20:28:15.106Z,12.70
2022-10-18T20:31:04.181Z,12.70
2022-10-18T20:33:55.299Z,12.80
2022-10-18T20:36:43.219Z,12.70
2022-10-18T20:39:31.100Z,12.70
2022-10-18T20:42:18.944Z,12.70
2022-10-18T20:45:08.908Z,12.60
2022-10-18T20:47:56.767Z,12.60
2022-10-18T20:50:44.641Z,12.60
2022-10-18T20:53:32.555Z,12.60
2022-10-18T20:56:21.646Z,12.60
2022-10-18T20:59:10.556Z,12.60
2022-10-18T21:01:59.897Z,12.60
2022-10-18T21:04:47.837Z,12.50
2022-10-18T21:07:35.927Z,12.50
2022-10-18T21:10:24.733Z,12.60
2022-10-18T21:13:12.563Z,12.50
2022-10-18T21:16:01.178Z,12.40
2022-10-18T21:18:50.387Z,12.40
2022-10-18T21:21:38.595Z,12.30
2022-10-18T21:24:27.020Z,12.30
2022-10-18T21:27:14.902Z,12.20
2022-10-18T21:30:02.958Z,12.20
2022-10-18T21:32:52.531Z,12.20
2022-10-18T21:35:41.976Z,12.20
2022-10-18T21:38:29.814Z,12.10
2022-10-18T21:41:18.761Z,12.10
2022-10-18T21:44:09.840Z,12.10
2022-10-18T21:46:58.711Z,12.00
2022-10-18T21:49:46.589Z,11.90
2022-10-18T21:52:35.853Z,11.90
2022-10-18T21:55:23.962Z,11.80
2022-10-18T21:58:11.796Z,11.70
2022-10-18T22:00:59.858Z,11.70
2022-10-18T22:03:49.043Z,11.60
2022-10-18T22:06:37.506Z,11.70
2022-10-18T22:09:26.735Z,11.60
2022-10-18T22:12:14.624Z,11.60
2022-10-18T22:15:02.719Z,11.60
2022-10-18T22:17:50.617Z,11.50
2022-10-18T22:20:38.507Z,11.50
2022-10-18T22:23:26.373Z,11.50
2022-10-18T22:26:16.665Z,11.50
2022-10-18T22:29:05.895Z,11.50
2022-10-18T22:31:55.069Z,11.50
2022-10-18T22:34:43.048Z,11.50
2022-10-18T22:37:31.502Z,11.40
2022-10-18T22:40:19.686Z,11.50
2022-10-18T22:43:08.936Z,11.60
2022-10-18T22:45:56.970Z,11.60
2022-10-18T22:48:45.257Z,11.60
2022-10-18T22:54:26.825Z,11.50
2022-10-18T22:57:14.747Z,11.40
2022-10-18T23:00:04.755Z,11.40
2022-10-18T23:02:52.645Z,11.30
2022-10-18T23:05:40.870Z,11.30
2022-10-18T23:08:29.182Z,11.20
2022-10-18T23:11:17.236Z,11.20
2022-10-18T23:14:05.847Z,11.10
2022-10-18T23:16:55.269Z,11.10
2022-10-18T23:19:43.117Z,11.20
2022-10-18T23:22:31.318Z,11.30
2022-10-18T23:25:19.597Z,11.20
2022-10-18T23:28:07.673Z,11.30
2022-10-18T23:30:55.617Z,11.30
2022-10-18T23:33:45.240Z,11.20
2022-10-18T23:36:34.427Z,11.20
2022-10-18T23:39:22.397Z,11.20
2022-10-18T23:42:10.256Z,11.20
2022-10-18T23:44:58.130Z,11.10
2022-10-18T23:47:45.999Z,11.20
2022-10-18T23:50:35.256Z,11.20
2022-10-18T23:53:23.216Z,11.10
2022-10-18T23:56:12.119Z,11.10
2022-10-18T23:58:59.957Z,11.00
